createdAt,value
2017-11-01T21:05:11.697Z,80.70
2017-11-01T21:07:39.204Z,80.80
2017-11-01T21:10:06.686Z,81.20
2017-11-01T21:12:35.005Z,81.80
2017-11-01T21:15:02.523Z,81.80
2017-11-01T21:17:30.769Z,82.40
2017-11-01T21:19:58.267Z,82.40
2017-11-01T21:22:26.504Z,82.40
2017-11-01T21:24:54.005Z,82.40
2017-11-01T21:27:22.259Z,82.60
2017-11-01T21:29:49.758Z,82.50
2017-11-01T21:32:17.251Z,82.70
2017-11-01T21:34:44.752Z,82.60
2017-11-01T21:37:13.019Z,83.00
2017-11-01T21:39:41.293Z,83.00
2017-11-01T21:42:09.568Z,83.00
2017-11-01T21:44:37.133Z,83.00
2017-11-01T21:47:04.618Z,83.40
2017-11-01T21:49:32.171Z,83.20
2017-11-01T21:52:00.412Z,83.10
2017-11-01T21:54:28.671Z,83.10
2017-11-01T21:56:56.151Z,83.00
2017-11-01T21:59:23.639Z,83.00
2017-11-01T22:01:51.871Z,83.20
2017-11-01T22:04:19.348Z,83.20
2017-11-01T22:06:46.839Z,83.20
2017-11-01T22:09:14.319Z,83.20
2017-11-01T22:11:41.809Z,83.00
2017-11-01T22:14:09.280Z,83.00
2017-11-01T22:16:36.769Z,82.80
2017-11-01T22:19:04.244Z,82.80
2017-11-01T22:21:31.715Z,82.70
2017-11-01T22:23:59.205Z,82.60
2017-11-01T22:26:26.688Z,82.50
2017-11-01T22:28:54.949Z,82.70
2017-11-01T22:31:22.423Z,82.60
2017-11-01T22:33:50.691Z,82.70
2017-11-01T22:36:18.945Z,82.40
2017-11-01T22:38:46.460Z,82.40
2017-11-01T22:41:13.987Z,82.50
2017-11-01T22:43:42.228Z,82.30
2017-11-01T22:46:09.712Z,82.30
2017-11-01T22:48:37.209Z,82.50
2017-11-01T22:51:04.714Z,82.40
2017-11-01T22:53:32.201Z,82.60
2017-11-01T22:56:00.445Z,82.60
2017-11-01T22:58:27.928Z,82.50
2017-11-01T23:00:56.175Z,82.50
2017-11-01T23:03:23.667Z,82.50
2017-11-01T23:05:51.913Z,82.20
2017-11-01T23:08:19.388Z,82.20
2017-11-01T23:10:46.898Z,82.10
2017-11-01T23:13:14.418Z,81.80
2017-11-01T23:15:42.680Z,81.70
2017-11-01T23:18:10.158Z,81.70
2017-11-01T23:20:38.399Z,81.70
2017-11-01T23:23:05.891Z,81.60
2017-11-01T23:25:34.128Z,81.30
2017-11-01T23:28:01.619Z,81.20
2017-11-01T23:30:29.863Z,81.70
2017-11-01T23:32:57.367Z,81.70
2017-11-01T23:35:25.603Z,82.10
2017-11-01T23:37:53.080Z,82.10
2017-11-01T23:40:20.578Z,82.10
2017-11-01T23:42:48.045Z,82.40
2017-11-01T23:45:15.538Z,82.60
2017-11-01T23:47:43.025Z,82.40
2017-11-01T23:50:11.288Z,82.30
2017-11-01T23:52:38.767Z,82.30
2017-11-01T23:55:07.004Z,82.30
2017-11-01T23:57:34.484Z,82.30
